createdAt,value
2019-01-18T00:00:03.608Z,11.2
2019-01-18T00:01:02.982Z,9.7
2019-01-18T00:02:03.796Z,8.6
2019-01-18T00:03:03.129Z,8.6
2019-01-18T00:04:03.204Z,8.6
2019-01-18T00:05:03.427Z,12.2
2019-01-18T00:06:03.269Z,11.2
2019-01-18T00:07:03.915Z,9.7
2019-01-18T00:08:03.510Z,9.7
2019-01-18T00:09:02.826Z,14.8
2019-01-18T00:10:01.943Z,12.2
2019-01-18T00:11:03.012Z,12.2
2019-01-18T00:12:02.534Z,17.3
2019-01-18T00:13:03.681Z,14.8
2019-01-18T00:14:03.092Z,14.8
2019-01-18T00:15:03.274Z,9.7
2019-01-18T00:16:03.377Z,11.2
2019-01-18T00:17:03.209Z,12.2
2019-01-18T00:18:03.854Z,12.2
2019-01-18T00:19:03.647Z,17.3
2019-01-18T00:20:03.089Z,17.3
2019-01-18T00:21:02.792Z,17.3
2019-01-18T00:22:03.605Z,17.3
2019-01-18T00:23:03.029Z,20.9
2019-01-18T00:24:03.668Z,20.9
2019-01-18T00:25:03.594Z,15.8
2019-01-18T00:26:03.525Z,18.4
2019-01-18T00:27:03.523Z,15.8
2019-01-18T00:28:03.250Z,15.8
2019-01-18T00:29:02.830Z,17.3
2019-01-18T00:30:02.452Z,18.4
2019-01-18T00:31:03.844Z,18.4
2019-01-18T00:32:03.503Z,18.4
2019-01-18T00:33:03.331Z,12.2
2019-01-18T00:34:02.061Z,13.3
2019-01-18T00:35:02.678Z,19.4
2019-01-18T00:36:03.146Z,19.4
2019-01-18T00:37:03.298Z,14.8
2019-01-18T00:38:03.672Z,17.3
2019-01-18T00:39:03.786Z,15.8
2019-01-18T00:40:03.622Z,15.8
2019-01-18T00:41:03.557Z,14.8
2019-01-18T00:42:03.793Z,14.8
2019-01-18T00:43:03.472Z,13.3
2019-01-18T00:44:03.320Z,13.3
2019-01-18T00:45:03.164Z,14.8
2019-01-18T00:46:02.901Z,14.8
2019-01-18T00:47:03.753Z,13.3
2019-01-18T00:48:03.068Z,12.2
2019-01-18T00:49:03.741Z,12.2
2019-01-18T00:50:03.051Z,14.8
2019-01-18T00:51:02.918Z,12.2
2019-01-18T00:52:03.511Z,12.2
2019-01-18T00:53:03.161Z,12.2
2019-01-18T00:54:03.161Z,12.2
2019-01-18T00:55:03.550Z,11.2
2019-01-18T00:56:03.266Z,11.2
2019-01-18T00:57:02.965Z,9.7
2019-01-18T00:58:03.316Z,11.2
2019-01-18T00:59:03.728Z,11.2
2019-01-18T01:00:03.616Z,11.2
2019-01-18T01:01:03.556Z,11.2
2019-01-18T01:02:03.165Z,11.2
2019-01-18T01:03:02.870Z,11.2
2019-01-18T01:04:03.819Z,11.2
2019-01-18T01:05:03.325Z,11.2
2019-01-18T01:06:03.888Z,11.2
2019-01-18T01:07:02.903Z,11.2
2019-01-18T01:08:02.938Z,11.2
2019-01-18T01:09:03.688Z,11.2
2019-01-18T01:10:02.567Z,14.8
2019-01-18T01:11:03.109Z,17.3
2019-01-18T01:12:02.087Z,11.2
2019-01-18T01:13:02.915Z,11.2
2019-01-18T01:14:03.301Z,13.3
2019-01-18T01:15:03.826Z,15.8
2019-01-18T01:16:02.874Z,18.4
2019-01-18T01:17:03.644Z,17.3
2019-01-18T01:18:03.218Z,14.8
2019-01-18T01:19:03.595Z,17.3
2019-01-18T01:20:03.281Z,17.3
2019-01-18T01:21:03.059Z,15.8
2019-01-18T01:22:03.721Z,14.8
2019-01-18T01:23:03.756Z,17.3
2019-01-18T01:24:03.527Z,17.3
2019-01-18T01:25:03.263Z,14.8
2019-01-18T01:26:03.041Z,14.8
2019-01-18T01:27:03.629Z,15.8
2019-01-18T01:28:03.079Z,18.4
2019-01-18T01:29:03.071Z,12.2
2019-01-18T01:30:03.733Z,12.2
2019-01-18T01:31:03.439Z,15.8
2019-01-18T01:32:02.287Z,19.4
2019-01-18T01:33:02.652Z,18.4
2019-01-18T01:34:03.356Z,12.2
2019-01-18T01:35:03.858Z,11.2
2019-01-18T01:36:03.613Z,11.2
2019-01-18T01:37:03.030Z,11.2
2019-01-18T01:38:03.832Z,11.2
2019-01-18T01:39:03.059Z,11.2
2019-01-18T01:40:03.282Z,15.8
2019-01-18T01:41:03.617Z,15.8
2019-01-18T01:42:02.954Z,15.8
2019-01-18T01:43:03.614Z,13.3
2019-01-18T01:44:02.941Z,15.8
2019-01-18T01:45:04.793Z,15.8
2019-01-18T01:46:03.546Z,15.8
2019-01-18T01:47:03.491Z,12.2
2019-01-18T01:48:03.189Z,15.8
2019-01-18T01:49:03.052Z,17.3
2019-01-18T01:50:03.900Z,13.3
2019-01-18T01:51:03.300Z,13.3
2019-01-18T01:52:03.214Z,14.8
2019-01-18T01:53:02.240Z,12.2
2019-01-18T01:54:03.670Z,12.2
2019-01-18T01:55:03.599Z,12.2
2019-01-18T01:56:03.506Z,17.3
2019-01-18T01:57:03.227Z,12.2
2019-01-18T01:58:03.718Z,12.2
2019-01-18T01:59:03.316Z,12.2
2019-01-18T02:00:03.001Z,12.2
2019-01-18T02:01:03.582Z,9.7
2019-01-18T02:02:03.054Z,9.7
2019-01-18T02:03:03.496Z,12.2
2019-01-18T02:04:02.799Z,12.2
2019-01-18T02:05:03.736Z,12.2
2019-01-18T02:06:03.117Z,14.8
2019-01-18T02:07:03.311Z,12.2
2019-01-18T02:08:03.460Z,8.6
2019-01-18T02:09:02.814Z,9.7
2019-01-18T02:10:03.275Z,11.2
2019-01-18T02:11:03.415Z,11.2
2019-01-18T02:12:03.796Z,11.2
2019-01-18T02:13:03.250Z,9.7
2019-01-18T02:14:03.893Z,9.7
2019-01-18T02:15:03.804Z,11.2
2019-01-18T02:16:03.181Z,11.2
2019-01-18T02:17:03.872Z,13.3
2019-01-18T02:18:03.801Z,11.2
2019-01-18T02:19:03.586Z,11.2
2019-01-18T02:20:03.387Z,11.2
2019-01-18T02:21:03.231Z,11.2
2019-01-18T02:22:03.391Z,13.3
2019-01-18T02:23:03.163Z,13.3
2019-01-18T02:24:03.291Z,11.2
2019-01-18T02:25:02.937Z,11.2
2019-01-18T02:26:03.526Z,8.6
2019-01-18T02:27:03.244Z,9.7
2019-01-18T02:28:03.957Z,9.7
2019-01-18T02:29:02.197Z,11.2
2019-01-18T02:30:02.968Z,11.2
2019-01-18T02:31:02.881Z,11.2
2019-01-18T02:32:03.458Z,12.2
2019-01-18T02:33:03.374Z,14.8
2019-01-18T02:34:03.080Z,12.2
2019-01-18T02:35:03.568Z,12.2
2019-01-18T02:36:03.668Z,8.6
2019-01-18T02:37:03.574Z,8.6
2019-01-18T02:38:02.885Z,8.6
2019-01-18T02:39:03.395Z,11.2
2019-01-18T02:40:03.306Z,11.2
2019-01-18T02:41:03.219Z,15.8
2019-01-18T02:42:05.155Z,15.8
2019-01-18T02:43:04.315Z,9.7
2019-01-18T02:44:03.590Z,11.2
2019-01-18T02:45:03.362Z,9.7
2019-01-18T02:46:03.409Z,9.7
2019-01-18T02:47:03.331Z,12.2
2019-01-18T02:48:03.293Z,9.7
2019-01-18T02:49:03.234Z,11.2
2019-01-18T02:50:03.916Z,11.2
2019-01-18T02:51:02.379Z,14.8
2019-01-18T02:52:03.584Z,15.8
2019-01-18T02:53:03.166Z,14.8
2019-01-18T02:54:03.148Z,14.8
2019-01-18T02:55:03.150Z,15.8
2019-01-18T02:56:03.315Z,14.8
2019-01-18T02:57:02.955Z,18.4
2019-01-18T02:58:03.664Z,13.3
2019-01-18T02:59:03.458Z,13.3
2019-01-18T03:00:05.655Z,14.8
2019-01-18T03:01:03.883Z,14.8
2019-01-18T03:02:03.545Z,14.8
2019-01-18T03:03:03.163Z,14.8
2019-01-18T03:04:02.993Z,14.8
2019-01-18T03:05:03.009Z,14.8
2019-01-18T03:06:03.288Z,14.8
2019-01-18T03:07:03.047Z,14.8
2019-01-18T03:08:03.658Z,14.8
2019-01-18T03:09:03.388Z,14.8
2019-01-18T03:10:03.025Z,14.8
2019-01-18T03:11:03.690Z,11.2
2019-01-18T03:12:03.439Z,12.2
2019-01-18T03:13:03.250Z,13.3
2019-01-18T03:14:03.125Z,13.3
2019-01-18T03:15:02.811Z,15.8
2019-01-18T03:16:03.529Z,15.8
2019-01-18T03:17:02.392Z,18.4
2019-01-18T03:18:03.128Z,18.4
2019-01-18T03:19:03.002Z,12.2
2019-01-18T03:20:02.190Z,11.2
2019-01-18T03:21:02.598Z,13.3
2019-01-18T03:22:02.948Z,13.3
2019-01-18T03:23:03.957Z,11.2
2019-01-18T03:24:03.705Z,11.2
2019-01-18T03:25:03.523Z,11.2
2019-01-18T03:26:03.700Z,14.8
2019-01-18T03:27:03.235Z,11.2
2019-01-18T03:28:03.326Z,11.2
2019-01-18T03:29:03.274Z,14.8
2019-01-18T03:30:03.446Z,12.2
2019-01-18T03:31:03.002Z,12.2
2019-01-18T03:32:03.642Z,11.2
2019-01-18T03:33:03.385Z,12.2
2019-01-18T03:34:02.725Z,12.2
2019-01-18T03:35:03.176Z,13.3
2019-01-18T03:36:02.923Z,13.3
2019-01-18T03:37:03.239Z,12.2
2019-01-18T03:38:03.029Z,12.2
2019-01-18T03:39:04.007Z,14.8
2019-01-18T03:40:03.356Z,15.8
2019-01-18T03:41:03.378Z,14.8
2019-01-18T03:42:03.353Z,13.3
2019-01-18T03:43:03.131Z,13.3
2019-01-18T03:44:03.153Z,15.8
2019-01-18T03:45:03.774Z,15.8
2019-01-18T03:46:03.547Z,14.8
2019-01-18T03:47:03.476Z,14.8
2019-01-18T03:48:03.489Z,11.2
2019-01-18T03:49:02.930Z,11.2
2019-01-18T03:50:03.654Z,14.8
2019-01-18T03:51:03.919Z,14.8
2019-01-18T03:52:03.541Z,14.8
2019-01-18T03:53:03.662Z,14.8
2019-01-18T03:54:03.338Z,13.3
2019-01-18T03:55:03.990Z,13.3
2019-01-18T03:56:03.168Z,13.3
2019-01-18T03:57:03.773Z,14.8
2019-01-18T03:58:03.345Z,14.8
2019-01-18T03:59:03.218Z,12.2
2019-01-18T04:00:03.223Z,13.3
2019-01-18T04:01:03.154Z,14.8
2019-01-18T04:02:02.104Z,13.3
2019-01-18T04:03:03.630Z,13.3
2019-01-18T04:04:02.467Z,12.2
2019-01-18T04:05:03.253Z,14.8
2019-01-18T04:06:03.816Z,14.8
2019-01-18T04:07:02.515Z,14.8
2019-01-18T04:08:03.746Z,14.8
2019-01-18T04:09:03.889Z,13.3
2019-01-18T04:10:03.608Z,13.3
2019-01-18T04:11:03.046Z,13.3
2019-01-18T04:12:03.742Z,12.2
2019-01-18T04:13:03.263Z,12.2
2019-01-18T04:14:03.838Z,13.3
2019-01-18T04:15:03.131Z,15.8
2019-01-18T04:16:02.829Z,12.2
2019-01-18T04:17:03.453Z,14.8
2019-01-18T04:18:03.110Z,14.8
2019-01-18T04:19:03.448Z,15.8
2019-01-18T04:20:03.116Z,15.8
2019-01-18T04:21:03.085Z,14.8
2019-01-18T04:22:03.004Z,13.3
2019-01-18T04:23:03.270Z,11.2
2019-01-18T04:24:03.774Z,11.2
2019-01-18T04:25:03.741Z,11.2
2019-01-18T04:26:03.449Z,11.2
2019-01-18T04:27:03.364Z,11.2
2019-01-18T04:28:03.127Z,13.3
2019-01-18T04:29:03.538Z,18.4
2019-01-18T04:30:03.669Z,18.4
2019-01-18T04:31:02.470Z,14.8
2019-01-18T04:32:02.321Z,11.2
2019-01-18T04:33:03.543Z,15.8
2019-01-18T04:34:02.172Z,17.3
2019-01-18T04:35:03.821Z,14.8
2019-01-18T04:36:03.383Z,15.8
2019-01-18T04:37:02.569Z,13.3
2019-01-18T04:38:02.988Z,13.3
2019-01-18T04:39:03.281Z,13.3
2019-01-18T04:40:03.165Z,13.3
2019-01-18T04:41:03.812Z,18.4
2019-01-18T04:42:03.416Z,19.4
2019-01-18T04:43:03.480Z,15.8
2019-01-18T04:44:03.420Z,13.3
2019-01-18T04:45:02.844Z,14.8
2019-01-18T04:46:03.195Z,17.3
2019-01-18T04:47:03.155Z,14.8
2019-01-18T04:48:03.075Z,14.8
2019-01-18T04:49:03.453Z,11.2
2019-01-18T04:50:03.217Z,11.2
2019-01-18T04:51:03.000Z,15.8
2019-01-18T04:52:03.693Z,15.8
2019-01-18T04:53:03.788Z,13.3
2019-01-18T04:54:03.050Z,13.3
2019-01-18T04:55:03.777Z,17.3
2019-01-18T04:56:02.407Z,15.8
2019-01-18T04:57:03.765Z,19.4
2019-01-18T04:58:03.758Z,18.4
2019-01-18T04:59:03.379Z,17.3
2019-01-18T05:00:03.647Z,14.8
2019-01-18T05:01:03.555Z,14.8
2019-01-18T05:02:03.872Z,14.8
2019-01-18T05:03:03.214Z,14.8
2019-01-18T05:04:03.119Z,14.8
2019-01-18T05:05:03.375Z,14.8
2019-01-18T05:06:03.385Z,14.8
2019-01-18T05:07:03.063Z,14.8
2019-01-18T05:08:03.399Z,14.8
2019-01-18T05:09:03.406Z,13.3
2019-01-18T05:10:03.962Z,13.3
2019-01-18T05:11:03.509Z,11.2
2019-01-18T05:12:03.574Z,11.2
2019-01-18T05:13:03.179Z,15.8
2019-01-18T05:14:03.193Z,15.8
2019-01-18T05:15:03.921Z,13.3
2019-01-18T05:16:03.631Z,13.3
2019-01-18T05:17:02.914Z,13.3
2019-01-18T05:18:02.997Z,13.3
2019-01-18T05:19:03.745Z,14.8
2019-01-18T05:20:03.410Z,14.8
2019-01-18T05:21:03.639Z,14.8
2019-01-18T05:22:03.146Z,8.6
2019-01-18T05:23:02.995Z,11.2
2019-01-18T05:24:02.884Z,15.8
2019-01-18T05:25:04.501Z,14.8
2019-01-18T05:26:02.816Z,14.8
2019-01-18T05:27:03.027Z,9.7
2019-01-18T05:28:03.237Z,15.8
2019-01-18T05:29:03.379Z,13.3
2019-01-18T05:30:03.527Z,14.8
2019-01-18T05:31:02.246Z,14.8
2019-01-18T05:32:01.899Z,13.3
2019-01-18T05:33:03.700Z,12.2
2019-01-18T05:34:03.700Z,12.2
2019-01-18T05:35:03.981Z,12.2
2019-01-18T05:36:03.884Z,14.8
2019-01-18T05:37:03.465Z,17.3
2019-01-18T05:38:03.322Z,14.8
2019-01-18T05:39:03.336Z,14.8
2019-01-18T05:40:03.301Z,14.8
2019-01-18T05:41:03.128Z,14.8
2019-01-18T05:42:03.531Z,12.2
2019-01-18T05:43:03.234Z,12.2
2019-01-18T05:44:03.868Z,12.2
2019-01-18T05:45:03.102Z,15.8
2019-01-18T05:46:03.245Z,15.8
2019-01-18T05:47:02.859Z,15.8
2019-01-18T05:48:03.068Z,13.3
2019-01-18T05:49:03.614Z,15.8
2019-01-18T05:50:03.118Z,15.8
2019-01-18T05:51:02.886Z,13.3
2019-01-18T05:52:02.910Z,17.3
2019-01-18T05:53:03.863Z,17.3
2019-01-18T05:54:03.798Z,14.8
2019-01-18T05:55:03.690Z,14.8
2019-01-18T05:56:03.357Z,12.2
2019-01-18T05:57:03.274Z,15.8
2019-01-18T05:58:03.280Z,12.2
2019-01-18T05:59:03.027Z,12.2
2019-01-18T06:00:03.760Z,15.8
2019-01-18T06:01:03.129Z,12.2
2019-01-18T06:02:03.042Z,12.2
2019-01-18T06:03:03.183Z,14.8
2019-01-18T06:04:03.148Z,14.8
2019-01-18T06:05:02.532Z,14.8
2019-01-18T06:06:03.149Z,12.2
2019-01-18T06:07:02.694Z,14.8
2019-01-18T06:08:03.655Z,15.8
2019-01-18T06:09:03.007Z,15.8
2019-01-18T06:10:03.627Z,15.8
2019-01-18T06:11:03.116Z,12.2
2019-01-18T06:12:03.232Z,12.2
2019-01-18T06:13:03.884Z,12.2
2019-01-18T06:14:03.381Z,12.2
2019-01-18T06:15:03.716Z,14.8
2019-01-18T06:16:03.584Z,13.3
2019-01-18T06:17:02.996Z,13.3
2019-01-18T06:18:03.449Z,12.2
2019-01-18T06:19:03.681Z,11.2
2019-01-18T06:20:03.878Z,14.8
2019-01-18T06:21:02.872Z,14.8
2019-01-18T06:22:03.155Z,11.2
2019-01-18T06:23:03.271Z,12.2
2019-01-18T06:24:03.103Z,12.2
2019-01-18T06:25:03.320Z,11.2
2019-01-18T06:26:03.253Z,11.2
2019-01-18T06:27:03.230Z,9.7
2019-01-18T06:28:03.729Z,9.7
2019-01-18T06:29:02.954Z,11.2
2019-01-18T06:30:03.501Z,11.2
2019-01-18T06:31:03.203Z,12.2
2019-01-18T06:32:03.701Z,8.6
2019-01-18T06:33:02.875Z,9.7
2019-01-18T06:34:03.528Z,8.6
2019-01-18T06:35:03.199Z,9.7
2019-01-18T06:36:03.326Z,12.2
2019-01-18T06:37:03.702Z,11.2
2019-01-18T06:38:03.534Z,11.2
2019-01-18T06:39:03.278Z,13.3
2019-01-18T06:40:02.978Z,14.8
2019-01-18T06:41:03.049Z,12.2
2019-01-18T06:42:03.532Z,12.2
2019-01-18T06:43:02.957Z,20.9
2019-01-18T06:44:03.353Z,20.9
2019-01-18T06:45:03.215Z,12.2
2019-01-18T06:46:03.940Z,11.2
2019-01-18T06:47:03.558Z,13.3
2019-01-18T06:48:03.295Z,13.3
2019-01-18T06:49:03.889Z,11.2
2019-01-18T06:50:03.388Z,12.2
2019-01-18T06:51:03.050Z,12.2
2019-01-18T06:52:02.926Z,9.7
2019-01-18T06:53:03.065Z,11.2
2019-01-18T06:54:02.386Z,8.6
2019-01-18T06:55:03.577Z,8.6
2019-01-18T06:56:03.017Z,8.6
2019-01-18T06:57:03.131Z,9.7
2019-01-18T06:58:02.921Z,9.7
2019-01-18T06:59:02.075Z,9.7
2019-01-18T07:00:03.303Z,9.7
2019-01-18T07:01:08.981Z,13.3
2019-01-18T07:02:03.628Z,13.3
2019-01-18T07:03:03.270Z,13.3
2019-01-18T07:04:03.014Z,13.3
2019-01-18T07:05:03.788Z,13.3
2019-01-18T07:06:03.337Z,13.3
2019-01-18T07:07:03.673Z,13.3
2019-01-18T07:08:03.269Z,13.3
2019-01-18T07:09:03.255Z,6.1
2019-01-18T07:10:03.862Z,6.1
2019-01-18T07:11:03.579Z,7.2
2019-01-18T07:12:03.222Z,7.2
2019-01-18T07:13:02.940Z,7.2
2019-01-18T07:14:03.282Z,7.2
2019-01-18T07:15:03.232Z,7.2
2019-01-18T07:16:03.250Z,7.2
2019-01-18T07:17:02.808Z,7.2
2019-01-18T07:18:03.415Z,6.1
2019-01-18T07:19:02.489Z,5
2019-01-18T07:20:03.522Z,3.6
2019-01-18T07:21:03.194Z,3.6
2019-01-18T07:22:03.699Z,7.2
2019-01-18T07:23:03.191Z,7.2
2019-01-18T07:24:03.322Z,3.6
2019-01-18T07:25:02.924Z,3.6
2019-01-18T07:26:03.258Z,6.1
2019-01-18T07:27:03.492Z,6.1
2019-01-18T07:28:03.003Z,3.6
2019-01-18T07:29:03.748Z,5
2019-01-18T07:30:03.298Z,5
2019-01-18T07:31:03.281Z,5
2019-01-18T07:32:03.759Z,2.5
2019-01-18T07:33:03.772Z,6.1
2019-01-18T07:34:03.421Z,3.6
2019-01-18T07:35:03.332Z,3.6
2019-01-18T07:36:03.341Z,2.5
2019-01-18T07:37:02.923Z,2.5
2019-01-18T07:38:03.022Z,6.1
2019-01-18T07:39:03.653Z,2.5
2019-01-18T07:40:03.333Z,3.6
2019-01-18T07:41:02.861Z,3.6
2019-01-18T07:42:03.324Z,7.2
2019-01-18T07:43:02.127Z,7.2
2019-01-18T07:44:02.121Z,6.1
2019-01-18T07:45:03.182Z,6.1
2019-01-18T07:46:03.160Z,5
2019-01-18T07:47:03.607Z,5
2019-01-18T07:48:04.150Z,5
2019-01-18T07:49:02.239Z,5
2019-01-18T07:50:03.880Z,5
2019-01-18T07:51:03.008Z,5
2019-01-18T07:52:03.754Z,6.1
2019-01-18T07:53:03.329Z,6.1
2019-01-18T07:54:03.558Z,6.1
2019-01-18T07:55:03.682Z,6.1
2019-01-18T07:56:03.290Z,8.6
2019-01-18T07:57:03.874Z,8.6
2019-01-18T07:58:03.402Z,7.2
2019-01-18T07:59:03.008Z,7.2
2019-01-18T08:00:03.341Z,7.2
2019-01-18T08:01:03.062Z,7.2
2019-01-18T08:02:03.446Z,7.2
2019-01-18T08:03:03.260Z,7.2
2019-01-18T08:04:03.426Z,7.2
2019-01-18T08:05:03.131Z,8.6
2019-01-18T08:06:03.451Z,8.6
2019-01-18T08:07:03.560Z,8.6
2019-01-18T08:08:03.506Z,8.6
2019-01-18T08:09:03.788Z,8.6
2019-01-18T08:10:03.620Z,14.8
2019-01-18T08:11:03.523Z,11.2
2019-01-18T08:12:03.406Z,11.2
2019-01-18T08:13:03.805Z,8.6
2019-01-18T08:14:03.534Z,9.7
2019-01-18T08:15:03.255Z,9.7
2019-01-18T08:16:03.319Z,8.6
2019-01-18T08:17:03.044Z,8.6
2019-01-18T08:18:03.355Z,9.7
2019-01-18T08:19:03.066Z,9.7
2019-01-18T08:20:03.463Z,8.6
2019-01-18T08:21:03.241Z,8.6
2019-01-18T08:22:02.974Z,9.7
2019-01-18T08:23:03.749Z,9.7
2019-01-18T08:24:03.320Z,11.2
2019-01-18T08:25:04.015Z,11.2
2019-01-18T08:26:03.651Z,8.6
2019-01-18T08:27:03.113Z,8.6
2019-01-18T08:28:03.612Z,8.6
2019-01-18T08:29:03.531Z,8.6
2019-01-18T08:30:03.724Z,9.7
2019-01-18T08:31:03.013Z,9.7
2019-01-18T08:32:01.900Z,8.6
2019-01-18T08:33:03.555Z,8.6
2019-01-18T08:34:03.018Z,8.6
2019-01-18T08:35:02.581Z,7.2
2019-01-18T08:36:03.737Z,9.7
2019-01-18T08:37:03.602Z,7.2
2019-01-18T08:38:03.495Z,9.7
2019-01-18T08:39:03.182Z,9.7
2019-01-18T08:40:03.296Z,7.2
2019-01-18T08:41:02.936Z,7.2
2019-01-18T08:42:03.593Z,5
2019-01-18T08:43:03.805Z,5
2019-01-18T08:44:03.445Z,9.7
2019-01-18T08:45:03.334Z,6.1
2019-01-18T08:46:03.105Z,6.1
2019-01-18T08:47:03.005Z,6.1
2019-01-18T08:48:02.821Z,3.6
2019-01-18T08:49:03.358Z,3.6
2019-01-18T08:50:03.587Z,2.5
2019-01-18T08:51:04.162Z,3.6
2019-01-18T08:52:03.541Z,3.6
2019-01-18T08:53:03.113Z,1.1
2019-01-18T08:54:03.020Z,1.1
2019-01-18T08:55:03.038Z,3.6
2019-01-18T08:56:03.353Z,2.5
2019-01-18T08:57:02.942Z,2.5
2019-01-18T08:58:03.105Z,8.6
2019-01-18T08:59:02.975Z,8.6
2019-01-18T09:00:03.212Z,2.5
2019-01-18T09:01:02.985Z,2.5
2019-01-18T09:02:03.413Z,2.5
2019-01-18T09:03:03.711Z,2.5
2019-01-18T09:04:02.392Z,2.5
2019-01-18T09:05:02.767Z,2.5
2019-01-18T09:06:03.882Z,2.5
2019-01-18T09:07:03.523Z,2.5
2019-01-18T09:08:03.567Z,2.5
2019-01-18T09:09:03.243Z,2.5
2019-01-18T09:10:03.481Z,7.2
2019-01-18T09:11:03.289Z,8.6
2019-01-18T09:12:03.421Z,7.2
2019-01-18T09:13:02.994Z,11.2
2019-01-18T09:14:03.060Z,11.2
2019-01-18T09:15:02.934Z,11.2
2019-01-18T09:16:03.820Z,12.2
2019-01-18T09:17:03.486Z,12.2
2019-01-18T09:18:02.955Z,12.2
2019-01-18T09:19:03.497Z,9.7
2019-01-18T09:20:03.852Z,13.3
2019-01-18T09:21:03.660Z,13.3
2019-01-18T09:22:03.749Z,11.2
2019-01-18T09:23:03.213Z,12.2
2019-01-18T09:24:03.262Z,12.2
2019-01-18T09:25:03.091Z,13.3
2019-01-18T09:26:03.353Z,15.8
2019-01-18T09:27:03.022Z,12.2
2019-01-18T09:28:03.627Z,12.2
2019-01-18T09:29:03.801Z,9.7
2019-01-18T09:30:03.128Z,8.6
2019-01-18T09:31:03.836Z,8.6
2019-01-18T09:32:03.529Z,9.7
2019-01-18T09:33:03.295Z,13.3
2019-01-18T09:34:03.547Z,12.2
2019-01-18T09:35:03.511Z,12.2
2019-01-18T09:36:03.522Z,8.6
2019-01-18T09:37:03.390Z,12.2
2019-01-18T09:38:02.814Z,13.3
2019-01-18T09:39:03.252Z,12.2
2019-01-18T09:40:03.759Z,11.2
2019-01-18T09:41:03.409Z,11.2
2019-01-18T09:42:03.797Z,8.6
2019-01-18T09:43:03.614Z,8.6
2019-01-18T09:44:03.146Z,13.3
2019-01-18T09:45:03.255Z,13.3
2019-01-18T09:46:03.018Z,11.2
2019-01-18T09:47:03.530Z,11.2
2019-01-18T09:48:03.540Z,9.7
2019-01-18T09:49:03.509Z,9.7
2019-01-18T09:50:03.191Z,13.3
2019-01-18T09:51:02.956Z,13.3
2019-01-18T09:52:03.175Z,9.7
2019-01-18T09:53:03.705Z,9.7
2019-01-18T09:54:02.902Z,9.7
2019-01-18T09:55:03.832Z,9.7
2019-01-18T09:56:03.115Z,14.8
2019-01-18T09:57:01.993Z,14.8
2019-01-18T09:58:03.721Z,15.8
2019-01-18T09:59:03.624Z,15.8
2019-01-18T10:00:03.077Z,12.2
2019-01-18T10:01:03.453Z,12.2
2019-01-18T10:02:03.143Z,12.2
2019-01-18T10:03:02.884Z,12.2
2019-01-18T10:04:03.399Z,15.8
2019-01-18T10:05:03.292Z,15.8
2019-01-18T10:06:03.024Z,14.8
2019-01-18T10:07:03.704Z,13.3
2019-01-18T10:08:03.480Z,14.8
2019-01-18T10:09:03.058Z,14.8
2019-01-18T10:10:03.859Z,11.2
2019-01-18T10:11:03.404Z,11.2
2019-01-18T10:12:03.414Z,11.2
2019-01-18T10:13:03.493Z,11.2
2019-01-18T10:14:03.144Z,13.3
2019-01-18T10:15:03.891Z,12.2
2019-01-18T10:16:03.575Z,12.2
2019-01-18T10:17:03.814Z,9.7
2019-01-18T10:18:03.357Z,12.2
2019-01-18T10:19:03.074Z,12.2
2019-01-18T10:20:02.199Z,8.6
2019-01-18T10:21:03.104Z,9.7
2019-01-18T10:22:03.733Z,9.7
2019-01-18T10:23:03.327Z,11.2
2019-01-18T10:24:02.897Z,8.6
2019-01-18T10:25:03.301Z,11.2
2019-01-18T10:26:03.025Z,11.2
2019-01-18T10:27:03.813Z,11.2
2019-01-18T10:28:03.278Z,11.2
2019-01-18T10:29:03.254Z,8.6
2019-01-18T10:30:03.120Z,8.6
2019-01-18T10:31:03.553Z,9.7
2019-01-18T10:32:03.016Z,6.1
2019-01-18T10:33:03.591Z,8.6
2019-01-18T10:34:03.582Z,9.7
2019-01-18T10:35:03.208Z,9.7
2019-01-18T10:36:03.014Z,9.7
2019-01-18T10:37:03.848Z,6.1
2019-01-18T10:38:03.481Z,6.1
2019-01-18T10:39:03.949Z,7.2
2019-01-18T10:40:03.532Z,7.2
2019-01-18T10:41:02.861Z,6.1
2019-01-18T10:42:02.946Z,11.2
2019-01-18T10:43:03.172Z,8.6
2019-01-18T10:44:06.542Z,8.6
2019-01-18T10:45:03.639Z,11.2
2019-01-18T10:46:03.791Z,7.2
2019-01-18T10:47:03.377Z,7.2
2019-01-18T10:48:04.078Z,6.1
2019-01-18T10:49:03.578Z,6.1
2019-01-18T10:50:03.877Z,6.1
2019-01-18T10:51:03.619Z,6.1
2019-01-18T10:52:03.050Z,7.2
2019-01-18T10:53:03.009Z,7.2
2019-01-18T10:54:03.733Z,5
2019-01-18T10:55:03.730Z,9.7
2019-01-18T10:56:02.737Z,9.7
2019-01-18T10:57:03.792Z,9.7
2019-01-18T10:58:02.422Z,9.7
2019-01-18T10:59:02.631Z,13.3
2019-01-18T11:00:03.585Z,9.7
2019-01-18T11:01:03.434Z,9.7
2019-01-18T11:02:07.726Z,12.2
2019-01-18T11:03:03.521Z,12.2
2019-01-18T11:04:02.953Z,12.2
2019-01-18T11:05:02.895Z,12.2
2019-01-18T11:06:02.964Z,12.2
2019-01-18T11:07:03.142Z,12.2
2019-01-18T11:08:03.102Z,12.2
2019-01-18T11:09:03.815Z,12.2
2019-01-18T11:10:03.270Z,12.2
2019-01-18T11:11:03.224Z,12.2
2019-01-18T11:12:02.894Z,12.2
2019-01-18T11:13:03.584Z,12.2
2019-01-18T11:14:02.994Z,9.7
2019-01-18T11:15:03.678Z,9.7
2019-01-18T11:16:03.054Z,11.2
2019-01-18T11:17:03.963Z,11.2
2019-01-18T11:18:03.765Z,12.2
2019-01-18T11:19:03.441Z,13.3
2019-01-18T11:20:03.467Z,12.2
2019-01-18T11:21:03.074Z,12.2
2019-01-18T11:22:03.552Z,11.2
2019-01-18T11:23:02.502Z,8.6
2019-01-18T11:24:03.123Z,12.2
2019-01-18T11:25:03.127Z,12.2
2019-01-18T11:26:03.589Z,12.2
2019-01-18T11:27:03.501Z,9.7
2019-01-18T11:28:03.233Z,12.2
2019-01-18T11:29:03.838Z,12.2
2019-01-18T11:30:03.149Z,12.2
2019-01-18T11:31:03.094Z,11.2
2019-01-18T11:32:03.408Z,11.2
2019-01-18T11:33:03.705Z,3.6
2019-01-18T11:34:03.078Z,5
2019-01-18T11:35:03.946Z,5
2019-01-18T11:36:03.674Z,9.7
2019-01-18T11:37:03.866Z,9.7
2019-01-18T11:38:03.003Z,12.2
2019-01-18T11:39:03.598Z,12.2
2019-01-18T11:40:03.581Z,12.2
2019-01-18T11:41:03.339Z,6.1
2019-01-18T11:42:05.712Z,6.1
2019-01-18T11:43:03.117Z,5
2019-01-18T11:44:03.605Z,8.6
2019-01-18T11:45:02.301Z,9.7
2019-01-18T11:46:03.475Z,11.2
2019-01-18T11:47:03.019Z,13.3
2019-01-18T11:48:03.654Z,8.6
2019-01-18T11:49:03.300Z,8.6
2019-01-18T11:50:03.651Z,8.6
2019-01-18T11:51:03.757Z,7.2
2019-01-18T11:52:03.008Z,9.7
2019-01-18T11:53:03.094Z,9.7
2019-01-18T11:54:03.725Z,9.7
2019-01-18T11:55:03.265Z,9.7
2019-01-18T11:56:03.041Z,7.2
2019-01-18T11:57:03.726Z,7.2
2019-01-18T11:58:02.943Z,9.7
2019-01-18T11:59:03.125Z,9.7
2019-01-18T12:00:03.336Z,8.6
2019-01-18T12:01:03.542Z,9.7
2019-01-18T12:02:02.972Z,9.7
2019-01-18T12:03:03.782Z,9.7
2019-01-18T12:04:03.251Z,7.2
2019-01-18T12:05:02.939Z,7.2
2019-01-18T12:06:03.145Z,6.1
2019-01-18T12:07:03.263Z,6.1
2019-01-18T12:08:02.972Z,9.7
2019-01-18T12:09:03.088Z,6.1
2019-01-18T12:10:03.740Z,7.2
2019-01-18T12:11:03.663Z,7.2
2019-01-18T12:12:02.980Z,3.6
2019-01-18T12:13:02.963Z,3.6
2019-01-18T12:14:03.501Z,7.2
2019-01-18T12:15:02.128Z,2.5
2019-01-18T12:16:04.325Z,5
2019-01-18T12:17:03.555Z,5
2019-01-18T12:18:03.636Z,3.6
2019-01-18T12:19:02.913Z,3.6
2019-01-18T12:20:03.026Z,1.1
2019-01-18T12:21:03.020Z,1.1
2019-01-18T12:22:03.014Z,3.6
2019-01-18T12:23:02.982Z,6.1
2019-01-18T12:24:03.784Z,5
2019-01-18T12:25:03.595Z,5
2019-01-18T12:26:03.850Z,2.5
2019-01-18T12:27:03.717Z,2.5
2019-01-18T12:28:03.169Z,1.1
2019-01-18T12:29:03.460Z,0
2019-01-18T12:30:03.960Z,0
2019-01-18T12:31:03.158Z,0
2019-01-18T12:32:03.514Z,0
2019-01-18T12:33:03.075Z,0
2019-01-18T12:34:03.119Z,2.5
2019-01-18T12:35:03.499Z,2.5
2019-01-18T12:36:03.586Z,1.1
2019-01-18T12:37:03.864Z,0
2019-01-18T12:38:03.570Z,1.1
2019-01-18T12:39:03.807Z,0
2019-01-18T12:40:03.421Z,0
2019-01-18T12:41:03.135Z,1.1
2019-01-18T12:42:02.367Z,0
2019-01-18T12:43:02.420Z,0
2019-01-18T12:44:02.824Z,0
2019-01-18T12:45:02.579Z,0
2019-01-18T12:46:03.629Z,0
2019-01-18T12:47:02.528Z,0
2019-01-18T12:48:03.908Z,0
2019-01-18T12:49:03.325Z,0
2019-01-18T12:50:02.870Z,0
2019-01-18T12:51:03.777Z,0
2019-01-18T12:52:03.619Z,0
2019-01-18T12:53:02.902Z,0
2019-01-18T12:54:03.485Z,0
2019-01-18T12:55:03.487Z,0
2019-01-18T12:56:03.062Z,0
2019-01-18T12:57:03.815Z,0
2019-01-18T12:58:03.457Z,0
2019-01-18T12:59:03.372Z,0
2019-01-18T13:00:03.055Z,0
2019-01-18T13:01:03.792Z,0
2019-01-18T13:02:03.183Z,0
2019-01-18T13:03:03.015Z,0
2019-01-18T13:04:03.252Z,0
2019-01-18T13:05:04.117Z,0
2019-01-18T13:06:03.366Z,0
2019-01-18T13:07:02.285Z,0
2019-01-18T13:08:02.968Z,0
2019-01-18T13:09:03.476Z,0
2019-01-18T13:10:02.013Z,3.6
2019-01-18T13:11:03.803Z,3.6
2019-01-18T13:12:03.305Z,3.6
2019-01-18T13:13:03.630Z,3.6
2019-01-18T13:14:05.302Z,2.5
2019-01-18T13:15:03.436Z,2.5
2019-01-18T13:16:03.013Z,5
2019-01-18T13:17:03.563Z,6.1
2019-01-18T13:18:03.209Z,3.6
2019-01-18T13:19:03.979Z,6.1
2019-01-18T13:20:03.226Z,6.1
2019-01-18T13:21:04.441Z,7.2
2019-01-18T13:22:03.637Z,8.6
2019-01-18T13:23:03.380Z,8.6
2019-01-18T13:24:03.738Z,8.6
2019-01-18T13:25:03.203Z,8.6
2019-01-18T13:26:03.684Z,7.2
2019-01-18T13:27:03.395Z,7.2
2019-01-18T13:28:02.943Z,8.6
2019-01-18T13:29:02.088Z,8.6
2019-01-18T13:30:02.457Z,6.1
2019-01-18T13:31:04.007Z,5
2019-01-18T13:32:01.869Z,5
2019-01-18T13:33:03.801Z,5